createdAt,value
2018-02-14T00:02:08.262Z,8.63
2018-02-14T00:04:35.907Z,7.83
2018-02-14T00:07:04.343Z,8.77
2018-02-14T00:09:32.332Z,8.30
2018-02-14T00:12:00.315Z,8.67
2018-02-14T00:14:28.030Z,9.30
2018-02-14T00:16:56.019Z,9.60
2018-02-14T00:19:24.339Z,8.50
2018-02-14T00:21:52.697Z,9.27
2018-02-14T00:24:21.684Z,8.67
2018-02-14T00:26:49.496Z,8.67
2018-02-14T00:29:17.557Z,9.03
2018-02-14T00:31:45.315Z,9.17
2018-02-14T00:34:13.307Z,8.40
2018-02-14T00:36:41.299Z,8.83
2018-02-14T00:39:09.005Z,8.60
2018-02-14T00:41:37.171Z,9.07
2018-02-14T00:44:05.309Z,9.30
2018-02-14T00:46:33.723Z,9.50
2018-02-14T00:49:03.348Z,8.80
2018-02-14T00:51:31.754Z,9.57
2018-02-14T00:54:00.858Z,9.80
2018-02-14T00:56:29.391Z,9.70
2018-02-14T00:58:56.982Z,8.47
2018-02-14T01:01:25.534Z,9.13
2018-02-14T01:03:53.510Z,8.57
2018-02-14T01:06:21.773Z,8.90
2018-02-14T01:08:50.213Z,8.60
2018-02-14T01:11:20.144Z,9.60
2018-02-14T01:13:48.146Z,8.97
2018-02-14T01:16:16.128Z,7.43
2018-02-14T01:18:48.616Z,8.60
2018-02-14T01:21:16.226Z,9.03
2018-02-14T01:23:44.601Z,9.73
2018-02-14T01:26:13.050Z,8.10
2018-02-14T01:28:41.437Z,10.07
2018-02-14T01:31:09.822Z,8.70
2018-02-14T01:33:37.434Z,8.03
2018-02-14T01:36:05.909Z,8.97
2018-02-14T01:38:33.800Z,9.33
2018-02-14T01:41:01.894Z,11.20
2018-02-14T01:43:30.280Z,8.90
2018-02-14T01:45:58.266Z,8.70
2018-02-14T01:48:25.994Z,9.13
2018-02-14T01:50:54.027Z,9.60
2018-02-14T01:53:28.219Z,9.13
2018-02-14T01:55:56.215Z,10.00
2018-02-14T01:58:24.586Z,9.43
2018-02-14T02:00:52.970Z,9.20
2018-02-14T02:03:21.002Z,9.80
2018-02-14T02:05:48.612Z,10.20
2018-02-14T02:10:50.586Z,8.60
2018-02-14T02:13:19.298Z,10.07
2018-02-14T02:15:47.254Z,9.90
2018-02-14T02:18:15.650Z,10.00
2018-02-14T02:20:43.669Z,9.57
2018-02-14T02:23:12.212Z,9.17
2018-02-14T02:25:39.859Z,10.30
2018-02-14T02:28:07.890Z,10.27
2018-02-14T02:30:36.293Z,11.70
2018-02-14T02:33:05.863Z,10.03
2018-02-14T02:35:34.234Z,10.83
2018-02-14T02:38:03.642Z,10.40
2018-02-14T02:40:32.142Z,10.43
2018-02-14T02:42:59.863Z,10.40
2018-02-14T02:45:27.445Z,10.80
2018-02-14T02:47:55.026Z,9.77
2018-02-14T02:50:23.070Z,9.40
2018-02-14T02:52:51.686Z,10.37
2018-02-14T02:55:20.613Z,9.40
2018-02-14T02:57:49.026Z,10.33
2018-02-14T03:00:16.755Z,11.33
2018-02-14T03:02:45.051Z,10.80
2018-02-14T03:05:13.450Z,12.00
2018-02-14T03:07:41.599Z,12.20
2018-02-14T03:10:10.010Z,11.30
2018-02-14T03:12:38.406Z,11.70
2018-02-14T03:15:06.421Z,10.57
2018-02-14T03:17:34.400Z,10.93
2018-02-14T03:20:02.374Z,9.87
2018-02-14T03:22:30.774Z,11.43
2018-02-14T03:24:58.840Z,11.63
2018-02-14T03:27:27.223Z,10.63
2018-02-14T03:29:54.903Z,10.80
2018-02-14T03:32:23.797Z,10.77
2018-02-14T03:34:52.207Z,10.90
2018-02-14T03:37:20.258Z,10.37
2018-02-14T03:39:47.954Z,11.13
2018-02-14T03:42:16.713Z,11.80
2018-02-14T03:44:44.672Z,11.83
2018-02-14T03:47:12.708Z,10.37
2018-02-14T03:49:40.334Z,10.53
2018-02-14T03:52:08.307Z,10.97
2018-02-14T03:54:36.820Z,11.60
2018-02-14T03:57:04.902Z,11.13
2018-02-14T03:59:33.298Z,10.50
2018-02-14T04:02:02.034Z,11.00
2018-02-14T04:04:29.688Z,10.20
2018-02-14T04:06:57.558Z,10.83
2018-02-14T04:09:25.297Z,10.23
2018-02-14T04:11:53.707Z,10.03
2018-02-14T04:14:21.424Z,10.60
2018-02-14T04:16:49.194Z,11.07
2018-02-14T04:19:18.106Z,10.40
2018-02-14T04:21:46.192Z,10.40
2018-02-14T04:24:14.656Z,9.93
2018-02-14T04:26:43.080Z,11.20
2018-02-14T04:29:11.078Z,11.70
2018-02-14T04:31:39.496Z,10.47
2018-02-14T04:34:07.490Z,10.90
2018-02-14T04:36:35.135Z,11.83
2018-02-14T04:39:03.221Z,10.97
2018-02-14T04:41:31.640Z,11.23
2018-02-14T04:43:59.681Z,10.73
2018-02-14T04:46:27.784Z,11.13
2018-02-14T04:48:56.315Z,10.87
2018-02-14T04:51:24.458Z,11.43
2018-02-14T04:53:53.725Z,11.00
2018-02-14T04:56:25.725Z,10.43
2018-02-14T04:58:55.016Z,11.50
2018-02-14T05:01:24.982Z,11.40
2018-02-14T05:03:54.261Z,10.10
2018-02-14T05:06:24.236Z,12.30
2018-02-14T05:08:54.307Z,12.87
2018-02-14T05:11:23.688Z,12.23
2018-02-14T05:13:54.263Z,10.80
2018-02-14T05:16:23.544Z,12.93
2018-02-14T05:18:54.426Z,12.00
2018-02-14T05:21:23.732Z,13.10
2018-02-14T05:23:53.580Z,13.67
2018-02-14T05:26:22.991Z,12.27
2018-02-14T05:28:52.284Z,13.10
2018-02-14T05:31:21.556Z,15.53
2018-02-14T05:33:51.864Z,15.77
2018-02-14T05:36:22.060Z,14.80
2018-02-14T05:38:51.324Z,15.73
2018-02-14T05:41:22.037Z,14.37
2018-02-14T05:43:51.585Z,14.07
2018-02-14T05:46:23.483Z,12.50
2018-02-14T05:48:52.755Z,12.70
2018-02-14T05:51:22.570Z,14.13
2018-02-14T05:53:51.828Z,13.63
2018-02-14T05:56:21.083Z,12.50
2018-02-14T05:58:50.496Z,13.20
2018-02-14T06:01:19.748Z,12.63
2018-02-14T06:03:49.762Z,13.60
2018-02-14T06:06:19.009Z,13.37
2018-02-14T06:08:48.290Z,12.03
2018-02-14T06:11:17.717Z,14.53
2018-02-14T06:13:47.049Z,12.70
2018-02-14T06:16:16.299Z,13.53
2018-02-14T06:18:46.931Z,13.20
2018-02-14T06:21:16.266Z,12.87
2018-02-14T06:23:45.638Z,15.27
2018-02-14T06:26:14.887Z,14.60
2018-02-14T06:28:44.266Z,13.07
2018-02-14T06:31:14.254Z,13.53
2018-02-14T06:33:43.776Z,13.57
2018-02-14T06:36:13.727Z,12.77
2018-02-14T06:38:43.240Z,12.77
2018-02-14T06:41:12.696Z,12.73
2018-02-14T06:43:41.979Z,14.07
2018-02-14T06:46:11.257Z,13.37
2018-02-14T06:48:40.773Z,13.60
2018-02-14T06:51:10.261Z,14.53
2018-02-14T06:53:39.640Z,13.37
2018-02-14T06:56:09.051Z,14.20
2018-02-14T06:58:38.343Z,14.00
2018-02-14T07:01:07.616Z,12.70
2018-02-14T07:03:36.875Z,14.43
2018-02-14T07:06:06.181Z,13.47
2018-02-14T07:08:35.456Z,13.70
2018-02-14T07:11:04.704Z,14.00
2018-02-14T07:13:33.995Z,11.83
2018-02-14T07:16:03.270Z,13.63
2018-02-14T07:18:32.584Z,13.00
2018-02-14T07:23:36.029Z,13.43
2018-02-14T07:26:05.714Z,13.70
2018-02-14T07:28:35.002Z,13.77
2018-02-14T07:31:04.892Z,13.27
2018-02-14T07:33:34.313Z,13.90
2018-02-14T07:36:03.601Z,14.60
2018-02-14T07:38:32.854Z,14.13
2018-02-14T07:41:02.279Z,14.43
2018-02-14T07:43:31.542Z,13.70
2018-02-14T07:46:00.888Z,13.43
2018-02-14T07:48:30.175Z,15.13
2018-02-14T07:51:03.020Z,16.13
2018-02-14T07:53:32.612Z,15.17
2018-02-14T07:56:01.942Z,14.70
2018-02-14T07:58:31.199Z,14.17
2018-02-14T08:01:04.473Z,16.20
2018-02-14T08:03:33.705Z,17.40
2018-02-14T08:06:03.012Z,18.43
2018-02-14T08:08:32.675Z,19.93
2018-02-14T08:11:02.502Z,17.77
2018-02-14T08:13:31.769Z,16.57
2018-02-14T08:16:01.122Z,16.43
2018-02-14T08:18:30.445Z,16.03
2018-02-14T08:20:59.726Z,15.53
2018-02-14T08:23:30.823Z,15.33
2018-02-14T08:25:58.812Z,16.57
2018-02-14T08:28:26.825Z,15.67
2018-02-14T08:30:54.473Z,16.53
2018-02-14T08:33:23.997Z,17.47
2018-02-14T08:35:52.374Z,16.80
2018-02-14T08:38:20.737Z,16.20
2018-02-14T08:40:49.127Z,15.73
2018-02-14T08:43:17.469Z,17.30
2018-02-14T08:45:45.874Z,15.13
2018-02-14T08:48:14.357Z,14.97
2018-02-14T08:50:42.799Z,15.97
2018-02-14T08:53:10.761Z,16.80
2018-02-14T08:55:38.357Z,15.97
2018-02-14T08:58:06.022Z,16.43
2018-02-14T09:00:34.116Z,15.33
2018-02-14T09:03:02.005Z,15.90
2018-02-14T09:05:29.998Z,14.10
2018-02-14T09:07:58.332Z,15.03
2018-02-14T09:10:26.687Z,15.80
2018-02-14T09:12:55.149Z,15.30
2018-02-14T09:15:23.495Z,16.30
2018-02-14T09:17:51.481Z,15.20
2018-02-14T09:20:19.095Z,16.50
2018-02-14T09:22:47.119Z,17.20
2018-02-14T09:25:15.017Z,16.10
2018-02-14T09:27:44.250Z,16.50
2018-02-14T09:30:12.387Z,16.90
2018-02-14T09:32:40.783Z,17.57
2018-02-14T09:35:08.936Z,16.00
2018-02-14T09:37:38.485Z,15.30
2018-02-14T09:40:06.080Z,16.03
2018-02-14T09:42:33.676Z,15.80
2018-02-14T09:45:01.571Z,17.30
2018-02-14T09:47:29.206Z,17.43
2018-02-14T09:49:56.814Z,17.60
2018-02-14T09:52:24.461Z,18.10
2018-02-14T09:54:52.991Z,17.67
2018-02-14T09:57:20.994Z,18.87
2018-02-14T09:59:50.310Z,18.10
2018-02-14T10:02:18.304Z,17.10
2018-02-14T10:04:46.665Z,18.10
2018-02-14T10:07:15.889Z,18.23
2018-02-14T10:09:45.754Z,17.67
2018-02-14T10:12:14.112Z,18.13
2018-02-14T10:14:47.411Z,19.17
2018-02-14T10:17:16.300Z,18.80
2018-02-14T10:19:43.901Z,18.83
2018-02-14T10:22:11.899Z,20.20
2018-02-14T10:24:41.579Z,16.10
2018-02-14T10:27:09.178Z,17.90
2018-02-14T10:29:37.152Z,17.83
2018-02-14T10:32:04.755Z,19.70
2018-02-14T10:34:32.347Z,17.57
2018-02-14T10:37:05.495Z,17.60
2018-02-14T10:39:33.128Z,19.20
2018-02-14T10:42:00.742Z,18.00
2018-02-14T10:44:29.108Z,18.77
2018-02-14T10:46:57.493Z,19.70
2018-02-14T10:49:25.206Z,18.70
2018-02-14T10:51:53.096Z,20.77
2018-02-14T10:54:21.458Z,19.30
2018-02-14T10:56:49.087Z,20.60
2018-02-14T10:59:16.687Z,18.70
2018-02-14T11:01:50.419Z,18.53
2018-02-14T11:04:24.108Z,18.10
2018-02-14T11:06:52.462Z,17.57
2018-02-14T11:09:21.035Z,18.70
2018-02-14T11:11:48.704Z,18.90
2018-02-14T11:14:16.304Z,17.00
2018-02-14T11:16:44.361Z,17.50
2018-02-14T11:19:12.083Z,17.80
2018-02-14T11:21:40.785Z,15.70
2018-02-14T11:24:08.439Z,16.90
2018-02-14T11:26:36.020Z,17.17
2018-02-14T11:29:03.638Z,18.53
2018-02-14T11:31:31.219Z,17.57
2018-02-14T11:33:58.816Z,18.33
2018-02-14T11:36:27.143Z,16.27
2018-02-14T11:38:55.450Z,16.77
2018-02-14T11:41:24.594Z,18.10
2018-02-14T11:43:52.191Z,17.50
2018-02-14T11:46:19.848Z,17.13
2018-02-14T11:48:49.312Z,15.90
2018-02-14T11:51:17.132Z,17.73
2018-02-14T11:53:44.771Z,16.87
2018-02-14T11:56:13.187Z,16.03
2018-02-14T11:58:40.886Z,15.77
2018-02-14T12:01:09.230Z,16.67
2018-02-14T12:03:36.851Z,16.40
2018-02-14T12:06:05.192Z,15.00
2018-02-14T12:08:32.815Z,14.90
2018-02-14T12:11:00.523Z,13.67
2018-02-14T12:13:28.282Z,15.70
2018-02-14T12:15:55.998Z,17.30
2018-02-14T12:18:24.081Z,16.47
2018-02-14T12:20:51.695Z,16.57
2018-02-14T12:23:19.273Z,16.93
2018-02-14T12:25:46.989Z,16.40
2018-02-14T12:28:14.619Z,15.13
2018-02-14T12:30:42.405Z,15.07
2018-02-14T12:33:10.276Z,17.70
2018-02-14T12:35:37.957Z,16.63
2018-02-14T12:38:07.174Z,15.47
2018-02-14T12:40:34.829Z,14.00
2018-02-14T12:43:02.856Z,14.50
2018-02-14T12:45:30.661Z,14.80
2018-02-14T12:47:58.249Z,13.80
2018-02-14T12:50:26.736Z,14.03
2018-02-14T12:52:54.354Z,13.93
2018-02-14T12:55:21.994Z,13.43
2018-02-14T12:57:50.587Z,13.20
2018-02-14T13:00:18.275Z,13.10
2018-02-14T13:02:45.839Z,13.20
2018-02-14T13:05:13.585Z,12.00
2018-02-14T13:07:41.313Z,12.33
2018-02-14T13:10:09.054Z,11.23
2018-02-14T13:12:36.719Z,13.67
2018-02-14T13:15:06.494Z,12.73
2018-02-14T13:17:34.122Z,13.73
2018-02-14T13:20:01.765Z,11.77
2018-02-14T13:22:30.121Z,11.27
2018-02-14T13:24:58.513Z,11.30
2018-02-14T13:27:26.852Z,12.17
2018-02-14T13:29:54.467Z,12.07
2018-02-14T13:32:22.160Z,11.00
2018-02-14T13:34:49.756Z,10.80
2018-02-14T13:37:17.453Z,10.87
2018-02-14T13:39:45.106Z,10.30
2018-02-14T13:42:13.243Z,10.27
2018-02-14T13:44:40.894Z,10.37
2018-02-14T13:47:08.487Z,9.90
2018-02-14T13:49:36.080Z,9.80
2018-02-14T13:52:03.702Z,9.10
2018-02-14T13:54:31.364Z,9.73
2018-02-14T13:56:59.021Z,8.53
2018-02-14T13:59:26.931Z,9.30
2018-02-14T14:01:54.556Z,8.10
2018-02-14T14:04:22.142Z,9.20
2018-02-14T14:06:49.745Z,8.23
2018-02-14T14:09:18.137Z,7.97
2018-02-14T14:11:45.730Z,8.70
2018-02-14T14:14:13.730Z,7.37
2018-02-14T14:16:41.307Z,7.70
2018-02-14T14:19:09.649Z,9.73
2018-02-14T14:21:37.305Z,9.30
2018-02-14T14:24:05.069Z,10.43
2018-02-14T14:26:33.477Z,9.60
2018-02-14T14:29:01.134Z,8.53
2018-02-14T14:31:29.533Z,9.10
2018-02-14T14:33:57.937Z,8.20
2018-02-14T14:36:25.541Z,7.03
2018-02-14T14:38:53.207Z,7.90
2018-02-14T14:41:20.815Z,8.60
2018-02-14T14:43:48.401Z,7.23
2018-02-14T14:46:16.158Z,8.70
2018-02-14T14:48:43.752Z,7.33
2018-02-14T14:51:11.328Z,7.70
2018-02-14T14:53:39.898Z,7.53
2018-02-14T14:56:07.865Z,7.33
2018-02-14T14:58:36.311Z,6.67
2018-02-14T15:01:03.923Z,5.73
2018-02-14T15:03:31.531Z,7.40
2018-02-14T15:05:59.188Z,7.07
2018-02-14T15:08:26.785Z,7.33
2018-02-14T15:10:54.385Z,8.10
2018-02-14T15:13:22.868Z,7.50
2018-02-14T15:15:50.463Z,7.63
2018-02-14T15:18:18.071Z,8.83
2018-02-14T15:20:46.421Z,7.57
2018-02-14T15:23:14.079Z,7.87
2018-02-14T15:25:41.675Z,8.43
2018-02-14T15:28:10.121Z,7.13
2018-02-14T15:30:39.348Z,7.63
2018-02-14T15:33:06.969Z,7.00
2018-02-14T15:35:34.860Z,6.67
2018-02-14T15:38:02.520Z,7.77
2018-02-14T15:40:30.132Z,7.30
2018-02-14T15:42:58.576Z,7.33
2018-02-14T15:45:26.955Z,8.00
2018-02-14T15:47:54.597Z,7.20
2018-02-14T15:50:22.183Z,7.80
2018-02-14T15:52:49.785Z,7.53
2018-02-14T15:55:18.419Z,7.60
2018-02-14T15:57:46.033Z,7.33
2018-02-14T16:00:14.394Z,9.30
2018-02-14T16:02:42.566Z,7.50
2018-02-14T16:05:10.919Z,8.87
2018-02-14T16:07:38.923Z,8.93
2018-02-14T16:10:07.396Z,7.90
2018-02-14T16:12:36.548Z,8.00
2018-02-14T16:15:04.260Z,8.07
2018-02-14T16:17:32.714Z,8.73
2018-02-14T16:20:00.814Z,8.93
2018-02-14T16:22:29.183Z,9.13
2018-02-14T16:24:58.057Z,9.70
2018-02-14T16:27:25.692Z,9.70
2018-02-14T16:29:54.097Z,12.43
2018-02-14T16:32:22.447Z,15.50
2018-02-14T16:34:50.827Z,13.90
2018-02-14T16:37:19.179Z,14.87
2018-02-14T16:39:46.873Z,14.63
2018-02-14T16:42:14.470Z,14.10
2018-02-14T16:44:42.831Z,15.63
2018-02-14T16:47:10.447Z,13.97
2018-02-14T16:49:38.500Z,13.00
2018-02-14T16:52:07.076Z,11.57
2018-02-14T16:54:35.119Z,10.30
2018-02-14T16:57:03.255Z,9.13
2018-02-14T16:59:31.625Z,9.60
2018-02-14T17:01:59.208Z,9.93
2018-02-14T17:04:27.628Z,8.97
2018-02-14T17:06:55.621Z,9.03
2018-02-14T17:09:24.182Z,9.27
2018-02-14T17:11:52.576Z,9.13
2018-02-14T17:14:21.708Z,10.10
2018-02-14T17:16:51.011Z,10.37
2018-02-14T17:19:19.036Z,9.60
2018-02-14T17:21:47.452Z,9.83
2018-02-14T17:24:15.784Z,8.87
2018-02-14T17:26:45.011Z,9.10
2018-02-14T17:29:12.690Z,9.03
2018-02-14T17:31:41.082Z,9.57
2018-02-14T17:34:09.479Z,10.03
2018-02-14T17:36:37.880Z,10.00
2018-02-14T17:39:07.093Z,8.40
2018-02-14T17:41:34.703Z,9.67
2018-02-14T17:44:02.749Z,10.20
2018-02-14T17:46:31.202Z,9.20
2018-02-14T17:48:58.796Z,9.47
2018-02-14T17:51:26.788Z,9.63
2018-02-14T17:53:55.172Z,10.63
2018-02-14T17:56:23.782Z,12.30
2018-02-14T17:58:52.310Z,14.10
2018-02-14T18:01:20.265Z,14.23
2018-02-14T18:03:48.363Z,14.00
2018-02-14T18:06:15.958Z,12.27
2018-02-14T18:08:44.559Z,11.13
2018-02-14T18:11:12.559Z,11.13
2018-02-14T18:13:40.951Z,10.00
2018-02-14T18:16:12.306Z,10.93
2018-02-14T18:18:40.300Z,9.80
2018-02-14T18:21:08.690Z,10.50
2018-02-14T18:23:37.199Z,10.57
2018-02-14T18:26:06.440Z,9.83
2018-02-14T18:28:34.254Z,10.80
2018-02-14T18:31:02.276Z,11.60
2018-02-14T18:33:30.667Z,10.53
2018-02-14T18:35:59.068Z,9.97
2018-02-14T18:38:27.433Z,10.13
2018-02-14T18:40:55.791Z,12.00
2018-02-14T18:43:24.237Z,10.73
2018-02-14T18:45:52.849Z,11.00
2018-02-14T18:48:21.133Z,12.03
2018-02-14T18:50:49.140Z,11.40
2018-02-14T18:53:16.755Z,10.57
2018-02-14T18:55:45.117Z,9.77
2018-02-14T18:58:13.183Z,9.77
2018-02-14T19:00:41.545Z,10.20
2018-02-14T19:03:09.904Z,9.93
2018-02-14T19:05:38.935Z,9.97
2018-02-14T19:08:06.560Z,8.80
2018-02-14T19:10:34.935Z,10.00
2018-02-14T19:13:02.537Z,11.40
2018-02-14T19:15:30.471Z,10.83
2018-02-14T19:17:58.588Z,11.17
2018-02-14T19:20:26.974Z,10.10
2018-02-14T19:22:54.575Z,10.03
2018-02-14T19:25:22.546Z,8.63
2018-02-14T19:27:51.165Z,9.20
2018-02-14T19:30:19.243Z,9.50
2018-02-14T19:32:47.612Z,9.40
2018-02-14T19:35:15.653Z,11.17
2018-02-14T19:37:44.062Z,11.50
2018-02-14T19:40:11.673Z,12.10
2018-02-14T19:42:39.672Z,11.17
2018-02-14T19:45:08.211Z,11.27
2018-02-14T19:47:36.264Z,11.80
2018-02-14T19:50:03.990Z,11.47
2018-02-14T19:52:32.725Z,11.43
2018-02-14T19:55:00.356Z,12.03
2018-02-14T19:57:28.767Z,11.13
2018-02-14T19:59:57.134Z,12.13
2018-02-14T20:02:25.890Z,12.13
2018-02-14T20:04:54.209Z,12.23
2018-02-14T20:07:22.189Z,12.17
2018-02-14T20:09:50.670Z,11.93
2018-02-14T20:12:19.203Z,12.20
2018-02-14T20:14:47.578Z,11.70
2018-02-14T20:17:15.598Z,11.63
2018-02-14T20:19:43.983Z,11.17
2018-02-14T20:22:13.085Z,11.60
2018-02-14T20:24:41.094Z,11.73
2018-02-14T20:27:09.446Z,12.40
2018-02-14T20:29:37.465Z,12.10
2018-02-14T20:32:05.105Z,10.00
2018-02-14T20:34:33.504Z,10.30
2018-02-14T20:37:01.884Z,12.07
2018-02-14T20:39:30.262Z,10.80
2018-02-14T20:41:59.012Z,11.90
2018-02-14T20:44:27.432Z,11.00
2018-02-14T20:46:55.055Z,11.00
2018-02-14T20:49:22.741Z,11.00
2018-02-14T20:51:50.755Z,10.77
2018-02-14T20:54:19.140Z,11.10
2018-02-14T20:56:47.486Z,11.23
2018-02-14T20:59:15.846Z,11.13
2018-02-14T21:01:44.230Z,11.87
2018-02-14T21:04:12.576Z,13.30
2018-02-14T21:06:41.761Z,12.40
2018-02-14T21:09:09.342Z,11.33
2018-02-14T21:11:36.945Z,13.10
2018-02-14T21:14:04.996Z,11.80
2018-02-14T21:16:33.008Z,10.50
2018-02-14T21:19:00.593Z,10.87
2018-02-14T21:21:28.183Z,11.90
2018-02-14T21:23:56.737Z,12.03
2018-02-14T21:26:24.362Z,12.53
2018-02-14T21:28:51.934Z,11.03
2018-02-14T21:31:20.317Z,11.27
2018-02-14T21:33:47.937Z,11.83
2018-02-14T21:36:16.325Z,13.00
2018-02-14T21:38:44.342Z,10.80
2018-02-14T21:41:11.946Z,11.10
2018-02-14T21:43:40.290Z,11.13
2018-02-14T21:46:07.911Z,12.30
2018-02-14T21:48:36.109Z,12.27
2018-02-14T21:51:04.144Z,11.97
2018-02-14T21:53:31.746Z,11.90
2018-02-14T21:55:59.359Z,12.07
2018-02-14T21:58:26.968Z,10.93
2018-02-14T22:00:55.580Z,11.83
2018-02-14T22:03:23.214Z,11.47
2018-02-14T22:05:51.154Z,12.80
2018-02-14T22:08:18.808Z,12.30
2018-02-14T22:10:46.451Z,12.50
2018-02-14T22:13:14.865Z,11.60
2018-02-14T22:15:42.535Z,13.00
2018-02-14T22:18:10.119Z,12.67
2018-02-14T22:20:38.124Z,13.17
2018-02-14T22:23:05.708Z,12.47
2018-02-14T22:25:33.286Z,13.33
2018-02-14T22:28:00.887Z,12.63
2018-02-14T22:30:29.267Z,15.13
2018-02-14T22:32:57.651Z,13.90
2018-02-14T22:35:26.082Z,13.63
2018-02-14T22:37:53.723Z,14.47
2018-02-14T22:40:21.305Z,13.80
2018-02-14T22:42:48.954Z,13.97
2018-02-14T22:45:16.549Z,14.10
2018-02-14T22:47:44.932Z,13.87
2018-02-14T22:50:13.329Z,14.23
2018-02-14T22:52:41.751Z,13.60
2018-02-14T22:55:09.390Z,15.67
2018-02-14T22:57:37.203Z,14.47
2018-02-14T23:00:04.831Z,15.57
2018-02-14T23:02:32.562Z,15.23
2018-02-14T23:05:00.136Z,15.40
2018-02-14T23:07:27.729Z,16.30
2018-02-14T23:09:55.308Z,17.10
2018-02-14T23:12:23.927Z,16.80
2018-02-14T23:14:51.644Z,17.63
2018-02-14T23:17:19.240Z,14.97
2018-02-14T23:19:47.611Z,15.73
2018-02-14T23:22:16.043Z,16.90
2018-02-14T23:24:43.622Z,15.70
2018-02-14T23:27:11.222Z,17.43
2018-02-14T23:29:38.862Z,17.93
2018-02-14T23:32:07.216Z,17.60
2018-02-14T23:34:34.828Z,17.63
2018-02-14T23:37:02.863Z,15.20
2018-02-14T23:39:30.459Z,17.90
2018-02-14T23:41:58.045Z,17.00
2018-02-14T23:44:25.651Z,17.73
2018-02-14T23:46:54.000Z,18.53
2018-02-14T23:49:21.626Z,16.97
2018-02-14T23:51:49.221Z,18.30
2018-02-14T23:54:16.842Z,18.03
2018-02-14T23:56:44.474Z,17.17
2018-02-14T23:59:12.098Z,16.90
